Poway (476, 175, 178, 648) Station Data

Red Flag Warning: No
Fire Weather Zone: 250
SDGE Region: North East
Lat/Lon: 32.982/-117.04

Observations

Time Wind Speed/Gust Temp(F) RH Fuel Moist Fuel Temp(F) Dewpt(F) Tmax(F) Tmin(F) Accum Precip 10-min Precip SL Press(mb)
5/24 8:20am 230 6 G 12 58° 97% - - 57° 58.7° 56° - - -
5/24 8:10am 245 3 G 7 58° 97% - - 57° 58.7° 56° - - -
5/24 8:00am 55 3 G 6 58° 97% - - 57° 58.7° 56° - - -
5/24 7:50am 166 2 G 4 58° 97% - - 57° 58.7° 56° - - -
5/24 7:40am 103 2 G 5 57° 97% - - 57° 58.7° 56° - - -
5/24 7:30am 120 1 G 3 57° 97% - - 57° 58.7° 56° - - -
5/24 7:20am 117 2 G 4 57° 97% - - 56° 58.7° 56° - - -
5/24 7:10am 151 2 G 5 57° 97% - - 56° 58.7° 56° - - -
5/24 7:00am 144 2 G 5 57° 97% - - 56° 58.7° 56° - - -
5/24 6:50am 105 2 G 5 57° 97% - - 56° 58.7° 56° - - -
5/24 6:40am 190 2 G 6 57° 97% - - 56° 58.7° 56° - - -
5/24 6:30am 212 4 G 6 57° 97% - - 56° 58.7° 56° - - -
5/24 6:20am 154 2 G 6 57° 97% - - 56° 58.7° 56° - - -
5/24 6:10am 190 3 G 6 57° 97% - - 56° 58.7° 56° - - -
5/24 6:00am 207 3 G 4 57° 97% - - 56° 58.7° 56° - - -
5/24 5:50am 214 3 G 6 57° 97% - - 56° 58.7° 56° - - -
5/24 5:40am 244 3 G 7 57° 97% - - 56° 58.7° 56° - - -
5/24 5:30am 217 3 G 5 57° 97% - - 56° 58.7° 56° - - -
5/24 5:20am 51 1 G 4 56° 97% - - 55° 58.7° 56° - - -
5/24 5:10am 22 0 G 2 56° 97% - - 56° 58.7° 56° - - -
5/24 5:00am 65 1 G 3 57° 97% - - 56° 58.7° 56.2° - - -
5/24 4:50am 68 2 G 4 57° 97% - - 56° 58.7° 56.5° - - -
5/24 4:40am 97 2 G 4 57° 97% - - 56° 58.7° 56.5° - - -
5/24 4:30am 102 2 G 5 57° 97% - - 56° 58.7° 56.5° - - -
5/24 4:20am 108 2 G 4 57° 97% - - 56° 58.7° 56.5° - - -
5/24 4:10am 95 3 G 6 57° 97% - - 56° 58.7° 56.5° - - -
5/24 4:00am 213 1 G 2 57° 97% - - 56° 58.7° 56.5° - - -
5/24 3:50am 240 2 G 4 57° 97% - - 56° 58.7° 56.5° - - -
5/24 3:40am 242 2 G 5 57° 97% - - 56° 58.7° 56.5° - - -
5/24 3:30am 224 1 G 3 57° 97% - - 56° 58.7° 56.5° - - -
5/24 3:20am 233 2 G 5 57° 97% - - 56° 58.7° 56.5° - - -
5/24 3:10am 252 2 G 4 57° 97% - - 56° 58.7° 56.5° - - -
5/24 3:00am 263 2 G 4 57° 96% - - 56° 58.7° 56.5° - - -
5/24 2:50am 249 1 G 3 57° 96% - - 56° 58.7° 56.5° - - -
5/24 2:40am 268 0 G 2 58° 96% - - 57° 58.7° 56.5° - - -
5/24 2:30am 278 1 G 4 57° 96% - - 56° 58.7° 56.5° - - -
5/24 2:20am 237 1 G 4 57° 96% - - 56° 58.7° 56.5° - - -
5/24 2:10am 208 1 G 3 57° 96% - - 56° 58.7° 56.5° - - -
5/24 2:00am 237 1 G 2 57° 96% - - 56° 58.7° 56.5° - - -
5/24 1:50am 258 1 G 2 57° 96% - - 56° 58.7° 56.5° - - -
5/24 1:40am 280 1 G 3 57° 96% - - 56° 58.7° 56.5° - - -
5/24 1:30am 274 1 G 4 57° 96% - - 56° 58.7° 56.6° - - -
5/24 1:20am 183 1 G 2 57° 96% - - 56° 58.7° 56.7° - - -
5/24 1:10am 40 0 G 2 57° 96% - - 56° 58.7° 56.7° - - -
5/24 1:00am 54 1 G 5 57° 96% - - 56° 58.7° 56.7° - - -
5/24 12:50am 42 1 G 5 57° 95% - - 56° 58.7° 57° - - -
5/24 12:40am 259 1 G 3 58° 95% - - 56° 58.7° 57.3° - - -
5/24 12:30am 158 1 G 2 58° 95% - - 56° 58.7° 57.4° - - -
5/24 12:20am 151 1 G 2 58° 95% - - 56° 58.7° 57.5° - - -
5/24 12:10am 193 2 G 5 58° 94% - - 56° 58.7° 57.7° - - -
5/24 12:00am 214 3 G 4 58° 93% - - 56° 84.9° 54.9° - - -
5/23 11:50pm 223 3 G 5 59° 91% - - 56° 84.9° 54.9° - - -
5/23 11:40pm 220 2 G 4 59° 90% - - 56° 84.9° 54.9° - - -
5/23 11:30pm 222 2 G 3 60° 89% - - 56° 84.9° 54.9° - - -
5/23 11:20pm 257 2 G 3 60° 88% - - 56° 84.9° 54.9° - - -
5/23 11:10pm 213 3 G 5 60° 88% - - 57° 84.9° 54.9° - - -
5/23 11:00pm 214 0 G 2 61° 87% - - 57° 84.9° 54.9° - - -
5/23 10:50pm 187 0 G 1 61° 87% - - 57° 84.9° 54.9° - - -
5/23 10:40pm 184 0 G 1 61° 86% - - 57° 84.9° 54.9° - - -
5/23 10:30pm 174 0 G 1 61° 85% - - 57° 84.9° 54.9° - - -
5/23 10:20pm 118 1 G 2 62° 84% - - 57° 84.9° 54.9° - - -
5/23 10:10pm 208 1 G 2 62° 83% - - 57° 84.9° 54.9° - - -
5/23 10:00pm 223 2 G 3 62° 82% - - 57° 84.9° 54.9° - - -
5/23 9:50pm 218 2 G 3 63° 81% - - 57° 84.9° 54.9° - - -
5/23 9:40pm 194 1 G 3 63° 81% - - 57° 84.9° 54.9° - - -
5/23 9:30pm 193 1 G 2 64° 79% - - 57° 84.9° 54.9° - - -
5/23 9:20pm 191 2 G 4 64° 77% - - 57° 84.9° 54.9° - - -
5/23 9:10pm 211 1 G 3 65° 74% - - 57° 84.9° 54.9° - - -
5/23 9:00pm 272 2 G 5 66° 72% - - 57° 84.9° 54.9° - - -
5/23 8:50pm 274 3 G 4 67° 71% - - 57° 84.9° 54.9° - - -
5/23 8:40pm 276 2 G 4 68° 68% - - 57° 84.9° 54.9° - - -
5/23 8:30pm 97 1 G 2 68° 66% - - 56° 84.9° 54.9° - - -
5/23 8:20pm 70 1 G 1 69° 65% - - 57° 84.9° 54.9° - - -
5/23 8:10pm 68 1 G 2 70° 64% - - 57° 84.9° 54.9° - - -
5/23 8:00pm 12 2 G 3 70° 63% - - 57° 84.9° 54.9° - - -
5/23 7:50pm 331 1 G 2 70° 61% - - 56° 84.9° 54.9° - - -
5/23 7:40pm 220 1 G 2 71° 60% - - 57° 84.9° 54.9° - - -
5/23 7:30pm 311 1 G 3 71° 59% - - 56° 84.9° 54.9° - - -
5/23 7:20pm 11 2 G 4 71° 60% - - 56° 84.9° 54.9° - - -
5/23 7:10pm 6 2 G 3 71° 60% - - 57° 84.9° 54.9° - - -
5/23 7:00pm 303 3 G 5 71° 61% - - 57° 84.9° 54.9° - - -
5/23 6:50pm 287 3 G 5 73° 59% - - 57° 84.9° 54.9° - - -
5/23 6:40pm 301 3 G 5 73° 58% - - 57° 84.9° 54.9° - - -
5/23 6:30pm 281 4 G 7 74° 56% - - 58° 84.9° 54.9° - - -
5/23 6:20pm 257 4 G 9 75° 54% - - 58° 84.9° 54.9° - - -
5/23 6:10pm 265 4 G 7 76° 53% - - 58° 84.9° 54.9° - - -
5/23 6:00pm 281 4 G 7 77° 51% - - 58° 84.9° 54.9° - - -
5/23 5:50pm 265 5 G 10 76° 52% - - 58° 84.9° 54.9° - - -
5/23 5:40pm 259 7 G 14 77° 51% - - 58° 84.9° 54.9° - - -
5/23 5:30pm 261 8 G 12 79° 49% - - 58° 84.9° 54.9° - - -
5/23 5:20pm 283 5 G 9 79° 48% - - 58° 84.9° 54.9° - - -
5/23 5:10pm 269 5 G 10 82° 42% - - 57° 84.9° 54.9° - - -
5/23 5:00pm 266 3 G 7 83° 38% - - 55° 84.9° 54.9° - - -
5/23 4:50pm 242 5 G 9 83° 38% - - 55° 84.9° 54.9° - - -
5/23 4:40pm 245 3 G 8 84° 36% - - 54° 84.9° 54.9° - - -
5/23 4:30pm 235 4 G 8 83° 36% - - 53° 84.9° 54.9° - - -
5/23 4:20pm 239 3 G 8 83° 35% - - 52° 84.9° 54.9° - - -
5/23 4:10pm 247 5 G 9 82° 36% - - 52° 84.9° 54.9° - - -
5/23 4:00pm 242 6 G 10 82° 36% - - 52° 84.9° 54.9° - - -
5/23 3:50pm 234 6 G 10 81° 37% - - 52° 84.9° 54.9° - - -
5/23 3:40pm 242 5 G 10 82° 38% - - 53° 84.9° 54.9° - - -
5/23 3:30pm 235 4 G 9 81° 42% - - 55° 84.9° 54.9° - - -
5/23 3:20pm 213 4 G 7 79° 49% - - 58° 84.9° 54.9° - - -
5/23 3:10pm 240 3 G 6 77° 52% - - 58° 84.9° 54.9° - - -
5/23 3:00pm 247 5 G 9 75° 56% - - 59° 84.9° 54.9° - - -
5/23 2:50pm 210 6 G 10 75° 58% - - 59° 84.9° 54.9° - - -
5/23 2:40pm 236 5 G 10 74° 58% - - 59° 84.9° 54.9° - - -
5/23 2:30pm 240 5 G 10 74° 59% - - 59° 84.9° 54.9° - - -
5/23 2:20pm 249 6 G 10 74° 58% - - 59° 84.9° 54.9° - - -
5/23 2:10pm 253 4 G 10 74° 59% - - 59° 84.9° 54.9° - - -
5/23 2:00pm 228 5 G 9 73° 60% - - 59° 84.9° 54.9° - - -
5/23 1:50pm 238 5 G 9 73° 60% - - 59° 84.9° 54.9° - - -
5/23 1:40pm 252 5 G 10 73° 60% - - 59° 84.9° 54.9° - - -
5/23 1:30pm 261 5 G 12 73° 61% - - 59° 84.9° 54.9° - - -
5/23 1:20pm 248 6 G 11 73° 61% - - 59° 84.9° 54.9° - - -
5/23 1:10pm 256 6 G 10 73° 62% - - 59° 84.9° 54.9° - - -
5/23 1:00pm 252 5 G 11 73° 62% - - 59° 84.9° 54.9° - - -
5/23 12:50pm 250 6 G 13 74° 60% - - 59° 84.9° 54.9° - - -
5/23 12:40pm 259 6 G 12 73° 61% - - 59° 84.9° 54.9° - - -
5/23 12:30pm 246 6 G 12 74° 61% - - 60° 84.9° 54.9° - - -
5/23 12:20pm 244 7 G 12 73° 62% - - 59° 84.9° 54.9° - - -
5/23 12:10pm 238 8 G 14 73° 62% - - 59° 84.9° 54.9° - - -
5/23 12:00pm 238 8 G 14 75° 60% - - 60° 84.9° 54.9° - - -
5/23 11:50am 241 8 G 14 76° 57% - - 60° 84.9° 54.9° - - -
5/23 11:40am 248 8 G 14 77° 57% - - 60° 84.9° 54.9° - - -
5/23 11:30am 253 9 G 16 78° 55% - - 61° 84.9° 54.9° - - -
5/23 11:20am 248 9 G 14 81° 51% - - 61° 84.9° 54.9° - - -
5/23 11:10am 251 7 G 14 84° 44% - - 60° 84.9° 54.9° - - -
5/23 11:00am 229 6 G 9 84° 39% - - 56° 84.4° 54.9° - - -
5/23 10:50am 240 5 G 10 83° 37% - - 54° 84.3° 54.9° - - -
5/23 10:40am 230 6 G 11 82° 41% - - 56° 82.9° 54.9° - - -
5/23 10:30am 224 5 G 9 81° 46% - - 59° 82.6° 54.9° - - -
5/23 10:20am 239 4 G 7 80° 47% - - 58° 80.9° 54.9° - - -
5/23 10:10am 212 2 G 5 79° 49% - - 58° 79.9° 54.9° - - -
5/23 10:00am 215 2 G 5 78° 49% - - 57° 78.5° 54.9° - - -
5/23 9:50am 158 3 G 4 77° 51% - - 57° 77.9° 54.9° - - -
5/23 9:40am 141 3 G 5 75° 54% - - 57° 75.9° 54.9° - - -
5/23 9:30am 132 2 G 5 73° 60% - - 58° 74° 54.9° - - -
5/23 9:20am 148 1 G 4 70° 66% - - 58° 71.9° 54.9° - - -
5/23 9:10am 198 2 G 5 69° 67% - - 58° 70.3° 54.9° - - -
5/23 9:00am 148 2 G 4 68° 69% - - 58° 69.3° 54.9° - - -
5/23 8:50am 168 3 G 5 67° 72% - - 58° 67.8° 54.9° - - -
5/23 8:40am 100 3 G 5 65° 83% - - 59° 67.1° 54.9° - - -
5/23 8:30am 229 1 G 3 61° 94% - - 60° 62.7° 54.9° - - -
5/23 8:20am 153 2 G 4 61° 96% - - 60° 61.4° 54.9° - - -
5/23 8:10am 120 2 G 4 59° 97% - - 58° 60.5° 54.9° - - -
5/23 8:00am 112 2 G 4 58° 97% - - 57° 58.8° 54.9° - - -
5/23 7:50am 127 1 G 3 57° 97% - - 56° 58.5° 54.9° - - -
5/23 7:40am 198 2 G 3 57° 97% - - 56° 58.5° 54.9° - - -
5/23 7:30am 162 1 G 3 57° 97% - - 56° 58.5° 54.9° - - -
5/23 7:20am 123 1 G 3 56° 97% - - 56° 58.5° 54.9° - - -
5/23 7:10am 128 1 G 3 56° 97% - - 55° 58.5° 54.9° - - -
5/23 7:00am 200 1 G 2 56° 97% - - 55° 58.5° 54.9° - - -
5/23 6:50am 232 1 G 2 56° 97% - - 55° 58.5° 54.9° - - -
5/23 6:40am 113 0 G 1 56° 97% - - 55° 58.5° 54.9° - - -
5/23 6:30am 16 1 G 3 56° 97% - - 55° 58.5° 54.9° - - -
5/23 6:20am 106 1 G 2 56° 97% - - 55° 58.5° 54.9° - - -
5/23 6:10am 130 1 G 3 56° 97% - - 55° 58.5° 54.9° - - -
5/23 6:00am 225 1 G 3 56° 97% - - 55° 58.5° 54.9° - - -